Accueil
METAR-TAF:

METAR-TAF

Aéroports :

Aéroport de Trapani

Trapani, Italie

latitude: 37-55N, longitude: 012-30E, altitude: 7 m

Observation

Le bulletin a été fait il y a 27 minutes, à 22:55 UTC
Vent 4 kt de est/sud-est
Température 18°C
Humidité 94%
Pression 1022 hPa
Visibilité 10 km ou plus
Nuages épars à une hauteur de 1500 ft

METAR: LICT 252255Z 11004KT 9999 SCT015 18/17 Q1022 RMK SCT VIS MIN 9999 WIND THR13 08003KT BLU

Heure: 01:22 (23:22 UTC)

Prévision

Le bulletin a été fait il y a 3 heures et 22 minutes, à 20:00 UTC
Prévision valable du 25 à 21 UTC au 26 à 06 UTC
Vent 4 kt de sud/sud-est
Visibilité 10 km ou plus
Nuages épars à une hauteur de 1500 ft

TAF: LICT 252000Z 2521/2606 15004KT 9999 SCT015

Observations et prévisions météorologiques de plus de 4000 aéroports (messages METAR et TAF).

Les stations disponibles sont représentées par des disques jaunes et rouges sur la carte.

Passer la souris dessus pour voir le nom de la station.

Cliquer dessus pour voir les observations et prévisions météorologiques.

Pour changer de carte: cliquez sur les boutons verts avec une croix noire pour zoomer, sur le bouton vert avec un tiret pour effectuer un zoom arrière, ou sur les flèches vertes pour les cartes adjacentes.


METAR-TAF: